Time;durP1;ratioP1;P1;durP2;ratioP2;P2;SDS_P1;SDS_P2;PMS_P1;PMS_P2;Temp;Humidity;BMP_temperature;BMP_pressure;BME280_temperature;BME280_humidity;BME280_pressure;Samples;Min_cycle;Max_cycle;Signal;HPM_P1;HPM_P2
2021/11/29 00:02:12;;;;;;;21.77;14.63;;;3.80;99.90;;;;;;5095245;28;20545;-68
2021/11/29 00:04:40;;;;;;;21.30;14.57;;;3.80;99.90;;;;;;5094215;28;20949;-68
2021/11/29 00:07:07;;;;;;;26.60;15.80;;;3.90;99.90;;;;;;5094530;28;20544;-68
2021/11/29 00:09:34;;;;;;;29.40;15.70;;;3.90;99.90;;;;;;5094517;28;20521;-69
2021/11/29 00:12:02;;;;;;;24.17;15.00;;;3.90;99.90;;;;;;5097139;28;20515;-68
2021/11/29 00:14:29;;;;;;;25.00;15.57;;;3.90;99.90;;;;;;5097747;28;20461;-69
2021/11/29 00:16:56;;;;;;;22.40;14.93;;;3.90;99.90;;;;;;5095064;28;20454;-68
2021/11/29 00:19:23;;;;;;;28.90;17.10;;;3.90;99.90;;;;;;5094599;28;20455;-68
2021/11/29 00:21:51;;;;;;;23.57;16.80;;;4.00;99.90;;;;;;5093981;28;20476;-68
2021/11/29 00:24:18;;;;;;;25.97;16.03;;;4.00;99.90;;;;;;5094109;28;20442;-68
2021/11/29 00:26:45;;;;;;;25.40;15.20;;;4.00;99.90;;;;;;5094085;28;20544;-68
2021/11/29 00:29:14;;;;;;;25.90;15.80;;;4.00;99.90;;;;;;5094342;28;20457;-68
2021/11/29 00:31:41;;;;;;;28.33;17.00;;;4.10;99.90;;;;;;5094318;28;20483;-69
2021/11/29 00:34:09;;;;;;;23.87;15.10;;;4.10;99.90;;;;;;5094243;28;20502;-68
2021/11/29 00:36:36;;;;;;;26.73;16.60;;;4.00;99.90;;;;;;5094367;28;20473;-68
2021/11/29 00:39:04;;;;;;;31.60;17.10;;;4.00;99.90;;;;;;5094610;28;20488;-68
2021/11/29 00:41:31;;;;;;;28.87;16.23;;;4.00;99.90;;;;;;5098144;28;21014;-68
2021/11/29 00:43:58;;;;;;;28.10;16.87;;;4.00;99.90;;;;;;5098053;28;20495;-68
2021/11/29 00:46:27;;;;;;;31.50;17.80;;;3.90;99.90;;;;;;5098661;28;20456;-68
2021/11/29 00:48:54;;;;;;;27.00;16.30;;;3.90;99.90;;;;;;5098183;28;20518;-68
2021/11/29 00:51:21;;;;;;;38.93;18.47;;;3.90;99.90;;;;;;5098028;28;20832;-69
2021/11/29 00:53:48;;;;;;;30.07;18.87;;;3.80;99.90;;;;;;5098001;28;20458;-69
2021/11/29 00:56:17;;;;;;;30.83;19.20;;;3.80;99.90;;;;;;5097837;28;20512;-68
2021/11/29 00:58:44;;;;;;;31.63;18.73;;;3.80;99.90;;;;;;5098494;28;20460;-68
2021/11/29 01:01:11;;;;;;;31.50;17.67;;;3.80;99.90;;;;;;5098066;28;20565;-68
2021/11/29 01:03:40;;;;;;;39.10;18.80;;;3.70;99.90;;;;;;5097958;28;20923;-68
2021/11/29 01:06:07;;;;;;;34.03;17.43;;;3.70;99.90;;;;;;5097791;28;20931;-68
2021/11/29 01:08:35;;;;;;;30.13;18.20;;;3.70;99.90;;;;;;5097859;28;20485;-68
2021/11/29 01:11:02;;;;;;;32.63;18.50;;;3.70;99.90;;;;;;5097596;28;20932;-68
2021/11/29 01:13:29;;;;;;;31.97;17.27;;;3.70;99.90;;;;;;5097930;28;20457;-68
2021/11/29 01:15:56;;;;;;;32.50;17.50;;;3.80;99.90;;;;;;5097761;28;20456;-68
2021/11/29 01:18:24;;;;;;;24.93;17.27;;;3.80;99.90;;;;;;5097740;28;20480;-69
2021/11/29 01:20:52;;;;;;;31.40;18.37;;;3.80;99.90;;;;;;5097297;28;20936;-68
2021/11/29 01:23:20;;;;;;;31.37;18.53;;;3.80;99.90;;;;;;5097184;28;20927;-68
2021/11/29 01:25:47;;;;;;;39.53;19.50;;;3.80;99.90;;;;;;5097682;28;20482;-68
2021/11/29 01:28:15;;;;;;;35.27;18.80;;;3.80;99.90;;;;;;5097269;28;20467;-68
2021/11/29 01:30:43;;;;;;;33.53;18.60;;;3.80;99.90;;;;;;5097090;28;20458;-68
2021/11/29 01:33:10;;;;;;;32.50;18.27;;;3.80;99.90;;;;;;5097295;28;20485;-69
2021/11/29 01:35:37;;;;;;;32.87;18.47;;;3.80;99.90;;;;;;5097174;28;20491;-68
2021/11/29 01:38:05;;;;;;;29.60;16.83;;;3.80;99.90;;;;;;5097259;28;20525;-69
2021/11/29 01:40:33;;;;;;;28.27;17.80;;;3.80;99.90;;;;;;5097080;28;20510;-68
2021/11/29 01:43:03;;;;;;;32.07;18.97;;;3.80;99.90;;;;;;5097449;28;20515;-68
2021/11/29 01:45:31;;;;;;;27.63;17.30;;;3.80;99.90;;;;;;5096862;28;20463;-68
2021/11/29 01:47:58;;;;;;;33.00;19.70;;;3.80;99.90;;;;;;5097186;28;20832;-68
2021/11/29 01:50:26;;;;;;;34.03;18.60;;;3.90;99.90;;;;;;5096825;28;20484;-68
2021/11/29 01:52:53;;;;;;;31.87;18.17;;;3.80;99.90;;;;;;5096665;28;20481;-68
2021/11/29 01:55:22;;;;;;;34.07;18.27;;;3.90;99.90;;;;;;5097013;28;20556;-68
2021/11/29 01:57:50;;;;;;;37.63;18.67;;;3.90;99.90;;;;;;5096996;28;20925;-68
2021/11/29 02:00:21;;;;;;;34.73;18.47;;;3.80;99.90;;;;;;5096446;28;20491;-68
2021/11/29 02:02:50;;;;;;;33.50;18.20;;;3.80;99.90;;;;;;5096960;28;20533;-69
2021/11/29 02:05:17;;;;;;;35.17;18.27;;;3.70;99.90;;;;;;5097065;28;20540;-68
2021/11/29 02:07:44;;;;;;;35.17;18.40;;;3.70;99.90;;;;;;5096631;28;20853;-68
2021/11/29 02:10:11;;;;;;;33.80;19.07;;;3.60;99.90;;;;;;5096825;28;20454;-69
2021/11/29 02:12:40;;;;;;;38.57;20.27;;;3.60;99.90;;;;;;5096554;28;21065;-68
2021/11/29 02:15:10;;;;;;;37.47;18.87;;;3.60;99.90;;;;;;5096621;28;20464;-68
2021/11/29 02:17:38;;;;;;;39.07;18.90;;;3.60;99.90;;;;;;5096892;28;20840;-68
2021/11/29 02:20:06;;;;;;;32.33;19.17;;;3.60;99.90;;;;;;5096482;28;20552;-69
2021/11/29 02:22:35;;;;;;;34.27;17.83;;;3.50;99.90;;;;;;5096024;28;20483;-69
2021/11/29 02:25:03;;;;;;;33.87;19.93;;;3.40;99.90;;;;;;5096140;28;20868;-69
2021/11/29 02:27:30;;;;;;;33.43;17.80;;;3.40;99.90;;;;;;5096030;28;20526;-69
2021/11/29 02:29:58;;;;;;;39.00;19.03;;;3.30;99.90;;;;;;5096488;28;20842;-69
2021/11/29 02:32:25;;;;;;;33.70;17.97;;;3.30;99.90;;;;;;5097155;28;20464;-69
2021/11/29 02:34:52;;;;;;;35.67;17.90;;;3.30;99.90;;;;;;5097492;28;20510;-69
2021/11/29 02:37:19;;;;;;;28.20;16.40;;;3.20;99.90;;;;;;5096601;28;20518;-69
2021/11/29 02:39:47;;;;;;;34.30;17.93;;;3.20;99.90;;;;;;5096144;28;20504;-69
2021/11/29 02:42:14;;;;;;;32.87;17.90;;;3.20;99.90;;;;;;5095913;28;20515;-69
2021/11/29 02:44:43;;;;;;;33.43;18.50;;;3.10;99.90;;;;;;5095682;28;20463;-69
2021/11/29 02:47:10;;;;;;;34.17;19.40;;;3.00;99.90;;;;;;5096400;28;20459;-69
2021/11/29 02:49:37;;;;;;;35.07;17.30;;;2.90;99.90;;;;;;5095844;28;20457;-69
2021/11/29 02:52:06;;;;;;;33.33;18.77;;;2.90;99.90;;;;;;5096170;28;20476;-69
2021/11/29 02:54:35;;;;;;;27.93;14.97;;;2.90;99.90;;;;;;5096251;28;20491;-68
2021/11/29 02:57:07;;;;;;;30.33;16.90;;;2.90;99.90;;;;;;5095911;28;20536;-68
2021/11/29 02:59:36;;;;;;;30.47;17.20;;;2.90;99.90;;;;;;5096126;28;20442;-70
2021/11/29 03:02:07;;;;;;;32.47;16.63;;;2.80;99.90;;;;;;5094804;28;20845;-70
2021/11/29 03:04:35;;;;;;;30.50;17.57;;;2.80;99.90;;;;;;5096057;28;20445;-69
2021/11/29 03:07:03;;;;;;;34.50;18.50;;;2.80;99.90;;;;;;5095793;28;20456;-68
2021/11/29 03:09:31;;;;;;;32.83;16.63;;;2.80;99.90;;;;;;5095352;28;20498;-70
2021/11/29 03:11:58;;;;;;;33.40;15.83;;;2.80;99.90;;;;;;5095206;28;20489;-68
2021/11/29 03:14:27;;;;;;;29.40;17.20;;;2.80;99.90;;;;;;5095635;28;20553;-68
2021/11/29 03:16:56;;;;;;;36.53;18.93;;;2.80;99.90;;;;;;5095307;28;20465;-67
2021/11/29 03:19:24;;;;;;;36.57;18.00;;;2.80;99.90;;;;;;5095474;28;20517;-69
2021/11/29 03:21:51;;;;;;;32.77;18.20;;;2.80;99.90;;;;;;5096071;28;20489;-68
2021/11/29 03:24:18;;;;;;;37.63;18.10;;;2.80;99.90;;;;;;5096382;28;20482;-69
2021/11/29 03:26:45;;;;;;;37.57;19.90;;;2.90;99.90;;;;;;5095667;28;20465;-69
2021/11/29 03:29:13;;;;;;;35.07;19.33;;;2.90;99.90;;;;;;5095274;28;20464;-69
2021/11/29 03:31:43;;;;;;;35.37;17.93;;;2.90;99.90;;;;;;5095387;28;20544;-69
2021/11/29 03:34:12;;;;;;;36.73;20.13;;;2.90;99.90;;;;;;5096109;28;20458;-69
2021/11/29 03:36:41;;;;;;;35.90;19.93;;;2.90;99.90;;;;;;5095652;28;20517;-68
2021/11/29 03:39:10;;;;;;;40.00;20.10;;;2.90;99.90;;;;;;5094928;28;20457;-69
2021/11/29 03:41:38;;;;;;;39.53;20.30;;;3.00;99.90;;;;;;5095488;28;20459;-68
2021/11/29 03:44:08;;;;;;;33.23;17.53;;;3.00;99.90;;;;;;5095286;28;20938;-69
2021/11/29 03:46:35;;;;;;;43.30;21.37;;;3.00;99.90;;;;;;5095086;28;20532;-69
2021/11/29 03:49:04;;;;;;;43.70;21.17;;;3.00;99.90;;;;;;5095126;28;20503;-68
2021/11/29 03:51:31;;;;;;;39.90;19.87;;;3.00;99.90;;;;;;5094881;28;20461;-69
2021/11/29 03:53:58;;;;;;;40.37;20.03;;;3.00;99.90;;;;;;5094852;28;20460;-69
2021/11/29 03:56:25;;;;;;;46.40;21.50;;;3.00;99.90;;;;;;5095011;28;20479;-69
2021/11/29 03:58:52;;;;;;;41.50;20.10;;;3.00;99.90;;;;;;5094597;28;20519;-69
2021/11/29 04:01:19;;;;;;;51.77;20.93;;;3.00;99.90;;;;;;5095131;28;20459;-69
2021/11/29 04:03:45;;;;;;;45.90;20.90;;;3.00;99.90;;;;;;5094471;28;20515;-69
2021/11/29 04:06:14;;;;;;;43.40;21.70;;;3.00;99.90;;;;;;5094843;28;20511;-69
2021/11/29 04:08:41;;;;;;;48.17;22.17;;;3.00;99.90;;;;;;5094573;28;20538;-69
2021/11/29 04:11:08;;;;;;;55.10;22.30;;;3.00;99.90;;;;;;5094437;28;20498;-69
2021/11/29 04:13:35;;;;;;;45.77;20.90;;;3.10;99.90;;;;;;5094544;28;20450;-69
2021/11/29 04:16:02;;;;;;;40.27;20.83;;;3.10;99.90;;;;;;5095005;28;20482;-69
2021/11/29 04:18:29;;;;;;;46.93;23.17;;;3.20;99.90;;;;;;5094584;28;20488;-69
2021/11/29 04:20:58;;;;;;;45.50;21.97;;;3.20;99.90;;;;;;5094555;28;20456;-69
2021/11/29 04:23:26;;;;;;;42.03;22.17;;;3.20;99.90;;;;;;5094168;28;20493;-70
2021/11/29 04:25:56;;;;;;;41.90;21.60;;;3.30;99.90;;;;;;5094451;28;20519;-69
2021/11/29 04:28:23;;;;;;;49.13;22.47;;;3.20;99.90;;;;;;5094300;28;20465;-69
2021/11/29 04:30:50;;;;;;;49.67;23.53;;;3.20;99.90;;;;;;5094395;28;20459;-69
2021/11/29 04:33:17;;;;;;;50.80;22.23;;;3.20;99.90;;;;;;5094174;28;20455;-68
2021/11/29 04:35:44;;;;;;;44.80;20.90;;;3.20;99.90;;;;;;5094282;28;20455;-68
2021/11/29 04:38:11;;;;;;;44.67;21.63;;;3.20;99.90;;;;;;5094455;28;20844;-69
2021/11/29 04:40:40;;;;;;;43.07;20.33;;;3.10;99.90;;;;;;5094566;28;20517;-68
2021/11/29 04:43:07;;;;;;;49.57;22.00;;;3.10;99.90;;;;;;5094111;28;20535;-69
2021/11/29 04:45:34;;;;;;;45.57;23.33;;;3.10;99.90;;;;;;5093949;28;20454;-68
2021/11/29 04:48:01;;;;;;;47.17;24.03;;;3.10;99.90;;;;;;5093826;28;20520;-69
2021/11/29 04:50:28;;;;;;;56.27;23.80;;;3.10;99.90;;;;;;5094645;28;20964;-68
2021/11/29 04:52:55;;;;;;;52.30;22.00;;;3.10;99.90;;;;;;5094064;28;20497;-69
2021/11/29 04:55:22;;;;;;;47.10;23.40;;;3.10;99.90;;;;;;5094359;28;20528;-69
2021/11/29 04:57:51;;;;;;;41.27;21.30;;;3.10;99.90;;;;;;5093660;28;20923;-69
2021/11/29 05:00:20;;;;;;;47.87;23.90;;;3.20;99.90;;;;;;5094056;28;20513;-68
2021/11/29 05:02:47;;;;;;;51.30;23.20;;;3.20;99.90;;;;;;5094211;28;20857;-69
2021/11/29 05:05:14;;;;;;;45.57;21.83;;;3.20;99.90;;;;;;5094311;28;20523;-70
2021/11/29 05:07:41;;;;;;;45.63;22.80;;;3.30;99.90;;;;;;5094392;28;20487;-70
2021/11/29 05:10:09;;;;;;;47.40;23.67;;;3.30;99.90;;;;;;5093762;28;20458;-70
2021/11/29 05:12:36;;;;;;;45.53;22.93;;;3.30;99.90;;;;;;5093774;28;20503;-70
2021/11/29 05:15:06;;;;;;;45.83;22.70;;;3.30;99.90;;;;;;5093686;28;20799;-70
2021/11/29 05:17:33;;;;;;;45.10;22.10;;;3.20;99.90;;;;;;5095380;28;20445;-70
2021/11/29 05:20:00;;;;;;;45.10;23.07;;;3.20;99.90;;;;;;5094250;28;20490;-70
2021/11/29 05:22:27;;;;;;;47.40;22.80;;;3.30;99.90;;;;;;5093539;28;20486;-70
2021/11/29 05:24:54;;;;;;;52.70;22.77;;;3.30;99.90;;;;;;5093747;28;20520;-70
2021/11/29 05:27:22;;;;;;;47.00;23.53;;;3.30;99.90;;;;;;5097718;28;20546;-70
2021/11/29 05:29:49;;;;;;;48.03;21.80;;;3.30;99.90;;;;;;5097679;28;20521;-71
2021/11/29 05:32:17;;;;;;;46.00;22.37;;;3.30;99.90;;;;;;5097619;28;20482;-71
2021/11/29 05:34:44;;;;;;;44.10;22.50;;;3.30;99.90;;;;;;5097476;28;20459;-70
2021/11/29 05:37:11;;;;;;;47.57;20.77;;;3.30;99.90;;;;;;5097393;28;20482;-70
2021/11/29 05:39:38;;;;;;;42.17;24.00;;;3.30;99.90;;;;;;5097762;28;20475;-71
2021/11/29 05:42:05;;;;;;;44.60;22.17;;;3.30;99.90;;;;;;5097545;28;20785;-70
2021/11/29 05:44:32;;;;;;;39.87;20.57;;;3.30;99.90;;;;;;5097762;28;20818;-71
2021/11/29 05:47:06;;;;;;;42.93;21.10;;;3.30;99.90;;;;;;5097302;28;20522;-70
2021/11/29 05:49:35;;;;;;;44.77;21.60;;;3.20;99.90;;;;;;5097090;28;20538;-70
2021/11/29 05:52:02;;;;;;;46.23;22.70;;;3.30;99.90;;;;;;5097410;28;20468;-70
2021/11/29 05:54:29;;;;;;;56.37;32.07;;;3.30;99.90;;;;;;5097031;28;20466;-71
2021/11/29 05:56:56;;;;;;;44.70;24.87;;;3.40;99.90;;;;;;5097568;28;20462;-70
2021/11/29 05:59:23;;;;;;;44.13;21.97;;;3.40;99.90;;;;;;5097038;28;20457;-70
2021/11/29 06:01:50;;;;;;;55.47;25.10;;;3.40;99.90;;;;;;5097060;28;20540;-70
2021/11/29 06:04:18;;;;;;;44.53;22.90;;;3.40;99.90;;;;;;5097034;28;20554;-70
2021/11/29 06:06:46;;;;;;;39.63;20.53;;;3.40;99.90;;;;;;5096779;28;20561;-70
2021/11/29 06:09:13;;;;;;;42.90;22.10;;;3.40;99.90;;;;;;5097033;28;20494;-70
2021/11/29 06:11:40;;;;;;;49.30;23.40;;;3.40;99.90;;;;;;5096512;28;20985;-70
2021/11/29 06:14:07;;;;;;;47.13;23.83;;;3.40;99.90;;;;;;5096514;28;20970;-70
2021/11/29 06:16:36;;;;;;;43.57;21.90;;;3.30;99.90;;;;;;5097272;28;20953;-69
2021/11/29 06:19:04;;;;;;;41.73;22.00;;;3.30;99.90;;;;;;5096599;28;20513;-71
2021/11/29 06:21:31;;;;;;;49.67;22.53;;;3.40;99.90;;;;;;5096510;28;20460;-71
2021/11/29 06:23:59;;;;;;;38.30;20.37;;;3.40;99.90;;;;;;5096095;28;20559;-71
2021/11/29 06:26:26;;;;;;;42.73;22.97;;;3.40;99.90;;;;;;5096158;28;20601;-70
2021/11/29 06:28:53;;;;;;;37.73;19.97;;;3.40;99.90;;;;;;5096283;28;20455;-70
2021/11/29 06:31:20;;;;;;;37.67;20.67;;;3.40;99.90;;;;;;5096068;28;20600;-70
2021/11/29 06:33:47;;;;;;;41.77;21.93;;;3.40;99.90;;;;;;5096357;28;20485;-71
2021/11/29 06:36:15;;;;;;;38.37;19.80;;;3.30;99.90;;;;;;5095690;28;20583;-70
2021/11/29 06:38:42;;;;;;;41.90;21.93;;;3.30;99.90;;;;;;5095250;28;20587;-71
2021/11/29 06:41:11;;;;;;;38.23;21.50;;;3.30;99.90;;;;;;5095816;28;20518;-70
2021/11/29 06:43:38;;;;;;;36.53;20.37;;;3.30;99.90;;;;;;5095571;28;21025;-70
2021/11/29 06:46:05;;;;;;;42.40;22.00;;;3.30;99.90;;;;;;5095965;28;20459;-70
2021/11/29 06:48:32;;;;;;;35.17;20.57;;;3.30;99.90;;;;;;5095490;28;20553;-70
2021/11/29 06:51:00;;;;;;;39.77;20.40;;;3.30;99.90;;;;;;5095859;28;20455;-69
2021/11/29 06:53:27;;;;;;;39.87;19.63;;;3.30;99.90;;;;;;5095808;28;20457;-70
2021/11/29 06:55:56;;;;;;;35.23;18.20;;;3.30;99.90;;;;;;5095535;28;20458;-69
2021/11/29 06:58:25;;;;;;;36.47;19.90;;;3.40;99.90;;;;;;5095276;28;20455;-71
2021/11/29 07:00:52;;;;;;;35.60;19.87;;;3.40;99.90;;;;;;5095889;28;20529;-70
2021/11/29 07:03:19;;;;;;;37.97;19.10;;;3.40;99.90;;;;;;5095512;28;20477;-70
2021/11/29 07:05:47;;;;;;;34.33;19.73;;;3.40;99.90;;;;;;5096110;28;20456;-71
2021/11/29 07:08:14;;;;;;;38.63;20.23;;;3.40;99.90;;;;;;5095688;28;20970;-69
2021/11/29 07:10:41;;;;;;;44.10;19.40;;;3.50;99.90;;;;;;5095198;28;20927;-69
2021/11/29 07:13:09;;;;;;;30.57;18.17;;;3.50;99.90;;;;;;5095455;28;20452;-69
2021/11/29 07:15:38;;;;;;;32.40;19.00;;;3.50;99.90;;;;;;5095109;28;20460;-69
2021/11/29 07:18:05;;;;;;;32.70;19.87;;;3.40;99.90;;;;;;5095092;28;20921;-69
2021/11/29 07:20:33;;;;;;;32.50;18.80;;;3.30;99.90;;;;;;5095235;28;20481;-69
2021/11/29 07:23:00;;;;;;;32.20;19.30;;;3.30;99.90;;;;;;5095171;28;20500;-69
2021/11/29 07:25:27;;;;;;;34.93;19.73;;;3.20;99.90;;;;;;5094868;28;20471;-68
2021/11/29 07:27:54;;;;;;;34.40;18.93;;;3.30;99.90;;;;;;5094478;28;20908;-68
2021/11/29 07:30:23;;;;;;;30.83;18.67;;;3.30;99.90;;;;;;5094738;28;20464;-69
2021/11/29 07:32:54;;;;;;;30.97;18.47;;;3.20;99.90;;;;;;5094714;28;20909;-69
2021/11/29 07:35:22;;;;;;;33.73;19.07;;;3.30;99.90;;;;;;5094603;28;20512;-69
2021/11/29 07:37:50;;;;;;;30.90;17.90;;;3.20;99.90;;;;;;5094972;28;20461;-69
2021/11/29 07:40:17;;;;;;;35.10;18.47;;;3.30;99.90;;;;;;5094735;28;20456;-69
2021/11/29 07:42:44;;;;;;;36.70;18.70;;;3.30;99.90;;;;;;5094226;28;20454;-69
2021/11/29 07:45:12;;;;;;;27.40;16.90;;;3.40;99.90;;;;;;5094706;28;20534;-69
2021/11/29 07:47:40;;;;;;;31.03;17.37;;;3.40;99.90;;;;;;5094826;28;20490;-69
2021/11/29 07:50:10;;;;;;;33.97;18.30;;;3.40;99.90;;;;;;5094366;28;20455;-69
2021/11/29 07:52:38;;;;;;;32.03;17.93;;;3.40;99.90;;;;;;5094764;28;20442;-70
2021/11/29 07:55:09;;;;;;;32.00;19.27;;;3.40;99.90;;;;;;5094330;28;20912;-70
2021/11/29 07:57:36;;;;;;;39.23;19.33;;;3.40;99.90;;;;;;5094635;28;20464;-69
2021/11/29 08:00:05;;;;;;;31.07;18.47;;;3.40;99.90;;;;;;5094526;28;20460;-69
2021/11/29 08:02:32;;;;;;;34.80;20.17;;;3.40;99.90;;;;;;5094706;28;20720;-70
2021/11/29 08:05:00;;;;;;;35.90;18.30;;;3.40;99.90;;;;;;5094531;28;20508;-69
2021/11/29 08:07:29;;;;;;;31.67;18.00;;;3.40;99.90;;;;;;5095158;28;20461;-69
2021/11/29 08:09:57;;;;;;;34.97;18.83;;;3.50;99.90;;;;;;5094610;28;20802;-69
2021/11/29 08:12:24;;;;;;;34.30;18.80;;;3.50;99.90;;;;;;5094437;28;20479;-68
2021/11/29 08:14:53;;;;;;;33.33;18.10;;;3.50;99.90;;;;;;5094307;28;20512;-68
2021/11/29 08:17:20;;;;;;;32.40;17.97;;;3.50;99.90;;;;;;5094210;28;20461;-69
2021/11/29 08:19:47;;;;;;;34.30;18.67;;;3.60;99.90;;;;;;5094410;28;20463;-69
2021/11/29 08:22:14;;;;;;;36.03;18.07;;;3.50;99.90;;;;;;5094069;28;20476;-70
2021/11/29 08:24:43;;;;;;;28.77;18.30;;;3.50;99.90;;;;;;5094337;28;20469;-69
2021/11/29 08:27:10;;;;;;;34.87;19.00;;;3.60;99.90;;;;;;5094605;28;20461;-69
2021/11/29 08:29:38;;;;;;;36.10;18.77;;;3.60;99.90;;;;;;5094202;28;20492;-69
2021/11/29 08:32:05;;;;;;;34.43;19.40;;;3.50;99.90;;;;;;5094337;28;20456;-68
2021/11/29 08:34:38;;;;;;;35.60;18.23;;;3.60;99.90;;;;;;5094198;28;20522;-69
2021/11/29 08:37:05;;;;;;;31.80;17.50;;;3.60;99.90;;;;;;5094017;28;20510;-69
2021/11/29 08:39:32;;;;;;;32.07;18.53;;;3.60;99.90;;;;;;5094131;28;20973;-70
2021/11/29 08:42:01;;;;;;;33.90;18.40;;;3.60;99.90;;;;;;5094333;28;20452;-69
2021/11/29 08:44:28;;;;;;;34.37;17.90;;;3.50;99.90;;;;;;5094703;28;20493;-68
2021/11/29 08:46:55;;;;;;;36.97;18.70;;;3.60;99.90;;;;;;5094263;28;20460;-68
2021/11/29 08:49:24;;;;;;;36.67;18.60;;;3.60;99.90;;;;;;5093916;28;20503;-68
2021/11/29 08:51:51;;;;;;;36.00;20.40;;;3.50;99.90;;;;;;5094647;28;20821;-69
2021/11/29 08:54:18;;;;;;;37.00;19.00;;;3.50;99.90;;;;;;5094459;28;20558;-69
2021/11/29 08:56:46;;;;;;;34.77;17.33;;;3.50;99.90;;;;;;5094255;28;20540;-69
2021/11/29 08:59:14;;;;;;;29.60;19.00;;;3.50;99.90;;;;;;5094296;28;20476;-69
2021/11/29 09:01:41;;;;;;;33.83;18.93;;;3.60;99.90;;;;;;5096605;28;20526;-69
2021/11/29 09:04:08;;;;;;;32.50;17.43;;;3.60;99.90;;;;;;5097385;28;20553;-69
2021/11/29 09:06:36;;;;;;;33.60;16.73;;;3.60;99.90;;;;;;5097470;28;20456;-69
2021/11/29 09:09:03;;;;;;;33.83;18.97;;;3.60;99.90;;;;;;5097871;28;20491;-69
2021/11/29 09:11:30;;;;;;;40.13;21.20;;;3.60;99.90;;;;;;5097379;28;20463;-69
2021/11/29 09:13:57;;;;;;;32.80;17.80;;;3.70;99.90;;;;;;5097832;28;20508;-69
2021/11/29 09:16:26;;;;;;;31.80;16.77;;;3.70;99.90;;;;;;5097608;28;20529;-69
2021/11/29 09:18:53;;;;;;;29.87;17.57;;;3.70;99.90;;;;;;5097843;28;20484;-69
2021/11/29 09:21:22;;;;;;;30.37;17.77;;;3.70;99.90;;;;;;5097728;28;20526;-69
2021/11/29 09:23:49;;;;;;;33.80;19.33;;;3.70;99.90;;;;;;5097110;28;20530;-69
2021/11/29 09:26:17;;;;;;;31.40;16.67;;;3.70;99.90;;;;;;5097700;28;20460;-69
2021/11/29 09:28:44;;;;;;;36.00;20.30;;;3.70;99.90;;;;;;5097913;28;20519;-69
2021/11/29 09:31:13;;;;;;;36.53;19.10;;;3.70;99.90;;;;;;5097469;28;20451;-69
2021/11/29 09:33:41;;;;;;;33.30;18.37;;;3.70;99.90;;;;;;5097102;28;20464;-69
2021/11/29 09:36:09;;;;;;;37.80;19.30;;;3.70;99.90;;;;;;5097405;28;20489;-69
2021/11/29 09:38:36;;;;;;;31.73;17.67;;;3.70;99.90;;;;;;5097460;28;20845;-70
2021/11/29 09:41:05;;;;;;;31.53;18.63;;;3.70;99.90;;;;;;5097067;28;20457;-69
2021/11/29 09:43:32;;;;;;;30.73;16.73;;;3.80;99.90;;;;;;5097082;28;20483;-70
2021/11/29 09:45:59;;;;;;;30.57;17.00;;;3.80;99.90;;;;;;5097461;28;20788;-69
2021/11/29 09:48:26;;;;;;;35.43;18.80;;;3.80;99.90;;;;;;5097522;28;20455;-70
2021/11/29 09:50:55;;;;;;;29.20;17.17;;;3.80;99.90;;;;;;5097282;28;20460;-68
2021/11/29 09:53:25;;;;;;;28.27;16.87;;;3.80;99.90;;;;;;5097033;28;20518;-70
2021/11/29 09:55:52;;;;;;;32.97;16.50;;;3.90;99.90;;;;;;5097123;28;20454;-68
2021/11/29 09:58:19;;;;;;;31.27;17.10;;;3.80;99.90;;;;;;5097097;28;20486;-69
2021/11/29 10:00:49;;;;;;;32.83;17.83;;;3.90;99.90;;;;;;5097013;28;20793;-70
2021/11/29 10:03:17;;;;;;;33.33;17.30;;;3.80;99.90;;;;;;5096919;28;20564;-68
2021/11/29 10:05:44;;;;;;;30.30;17.73;;;3.80;99.90;;;;;;5097065;28;20527;-69
2021/11/29 10:08:20;;;;;;;34.00;19.00;;;3.70;99.90;;;;;;5096842;28;20819;-69
2021/11/29 10:10:49;;;;;;;37.33;17.40;;;3.80;99.90;;;;;;5096965;28;20883;-69
2021/11/29 10:13:16;;;;;;;30.37;16.77;;;3.70;99.90;;;;;;5096744;28;20488;-68
2021/11/29 10:15:44;;;;;;;32.77;17.70;;;3.70;99.90;;;;;;5096311;28;20458;-71
2021/11/29 10:18:14;;;;;;;30.93;17.60;;;3.70;99.90;;;;;;5096353;28;20521;-69
2021/11/29 10:20:54;;;;;;;34.53;18.63;;;3.80;99.90;;;;;;5096643;28;20488;-69
2021/11/29 10:23:30;;;;;;;28.87;16.00;;;3.90;99.90;;;;;;5096155;28;20493;-69
2021/11/29 10:25:58;;;;;;;31.20;15.97;;;4.00;99.90;;;;;;5096293;28;20445;-69
2021/11/29 10:28:29;;;;;;;26.90;15.23;;;4.00;99.90;;;;;;5096249;28;20457;-68
2021/11/29 10:31:15;;;;;;;30.30;17.17;;;4.10;99.90;;;;;;5096036;28;20507;-69
2021/11/29 10:34:02;;;;;;;25.57;14.27;;;4.10;99.90;;;;;;5096628;28;20794;-69
2021/11/29 10:36:31;;;;;;;27.77;15.20;;;4.20;99.90;;;;;;5096510;28;20445;-69
2021/11/29 10:39:04;;;;;;;29.63;15.90;;;4.20;99.90;;;;;;5095970;28;20462;-68
2021/11/29 10:41:34;;;;;;;25.00;15.13;;;4.20;99.90;;;;;;5096384;28;20744;-68
2021/11/29 10:44:02;;;;;;;29.67;16.37;;;4.20;99.90;;;;;;5096354;28;20510;-69
2021/11/29 10:46:31;;;;;;;29.60;15.80;;;4.20;99.90;;;;;;5096245;28;20451;-69
2021/11/29 10:49:01;;;;;;;26.30;15.80;;;4.20;99.90;;;;;;5096107;28;20519;-69
2021/11/29 10:51:28;;;;;;;27.53;16.00;;;4.30;99.90;;;;;;5095406;28;20547;-69
2021/11/29 10:54:00;;;;;;;27.10;15.47;;;4.20;99.90;;;;;;5095964;28;20460;-69
2021/11/29 10:56:29;;;;;;;29.77;16.00;;;4.30;99.90;;;;;;5095770;28;20494;-69
2021/11/29 10:58:58;;;;;;;28.00;15.10;;;4.30;99.90;;;;;;5096379;28;20512;-69
2021/11/29 11:01:38;;;;;;;28.20;14.93;;;4.30;99.90;;;;;;5095438;28;20510;-69
2021/11/29 11:04:07;;;;;;;22.80;13.90;;;4.30;99.90;;;;;;5095749;28;20560;-70
2021/11/29 11:06:36;;;;;;;24.17;14.97;;;4.30;99.90;;;;;;5096107;28;20907;-70
2021/11/29 11:09:18;;;;;;;26.53;14.77;;;4.30;99.90;;;;;;5096090;28;20979;-70
2021/11/29 11:11:48;;;;;;;32.07;17.77;;;4.40;99.90;;;;;;5096085;28;20440;-70
2021/11/29 11:14:17;;;;;;;22.40;13.60;;;4.40;99.90;;;;;;5095077;28;20462;-72
2021/11/29 11:16:51;;;;;;;24.40;14.37;;;4.50;99.90;;;;;;5094800;28;20496;-70
2021/11/29 11:19:33;;;;;;;23.40;13.40;;;4.50;99.90;;;;;;5095171;28;20446;-70
2021/11/29 11:22:03;;;;;;;21.20;12.57;;;4.50;99.90;;;;;;5095240;28;20508;-67
2021/11/29 11:24:34;;;;;;;20.13;14.00;;;4.50;99.90;;;;;;5095508;28;20798;-68
2021/11/29 11:27:03;;;;;;;18.80;12.20;;;4.50;99.90;;;;;;5095519;28;20485;-70
2021/11/29 11:29:51;;;;;;;23.70;12.23;;;4.40;99.90;;;;;;5094919;28;20492;-69
2021/11/29 11:32:27;;;;;;;20.70;11.60;;;4.40;99.90;;;;;;5100066;28;20779;-72
2021/11/29 11:34:57;;;;;;;21.27;13.07;;;4.40;99.90;;;;;;5095377;28;20448;-69
2021/11/29 11:37:27;;;;;;;19.77;11.93;;;4.40;99.90;;;;;;5095574;28;20525;-67
2021/11/29 11:39:56;;;;;;;20.00;11.83;;;4.40;99.90;;;;;;5095175;28;21002;-68
2021/11/29 11:42:23;;;;;;;19.83;11.00;;;4.30;99.90;;;;;;5095533;28;20756;-69
2021/11/29 11:44:52;;;;;;;20.90;12.07;;;4.40;99.90;;;;;;5094619;28;20561;-69
2021/11/29 11:47:19;;;;;;;17.23;11.17;;;4.50;99.90;;;;;;5094731;28;20461;-69
2021/11/29 11:49:49;;;;;;;18.30;10.80;;;4.50;99.90;;;;;;5094479;28;20552;-69
2021/11/29 11:52:19;;;;;;;17.30;11.40;;;4.50;99.90;;;;;;5094719;28;20499;-68
2021/11/29 11:54:47;;;;;;;19.97;12.10;;;4.50;99.90;;;;;;5094721;28;20441;-69
2021/11/29 11:57:20;;;;;;;17.00;10.60;;;4.60;99.90;;;;;;5094952;28;20459;-69
2021/11/29 12:00:00;;;;;;;18.90;10.73;;;4.70;99.90;;;;;;5094661;28;20440;-68
2021/11/29 12:02:54;;;;;;;17.37;9.63;;;4.80;99.90;;;;;;5094595;28;20475;-69
2021/11/29 12:05:25;;;;;;;17.60;10.53;;;4.70;99.90;;;;;;5089444;28;21049;-69
2021/11/29 12:07:53;;;;;;;18.93;11.43;;;4.70;99.90;;;;;;5094652;28;20449;-69
2021/11/29 12:10:50;;;;;;;42.90;23.97;;;4.60;99.90;;;;;;5094594;28;20493;-67
2021/11/29 12:13:20;;;;;;;15.57;9.57;;;4.60;99.90;;;;;;5033380;28;20748;-68
2021/11/29 12:15:49;;;;;;;16.30;9.37;;;4.70;99.90;;;;;;5082432;28;20883;-69
2021/11/29 12:18:37;;;;;;;16.50;10.17;;;4.70;99.90;;;;;;5094457;28;20468;-69
2021/11/29 12:21:19;;;;;;;14.80;8.93;;;4.60;99.90;;;;;;5094063;28;20460;-70
2021/11/29 12:23:50;;;;;;;15.80;9.80;;;4.60;99.90;;;;;;5094474;28;20882;-68
2021/11/29 12:26:18;;;;;;;15.40;9.63;;;4.70;99.90;;;;;;5093927;28;20508;-68
2021/11/29 12:28:47;;;;;;;13.00;8.10;;;4.90;99.90;;;;;;5094318;28;20461;-68
2021/11/29 12:31:39;;;;;;;13.10;7.80;;;5.50;99.90;;;;;;5094656;28;20469;-68
2021/11/29 12:34:08;;;;;;;12.70;8.43;;;6.30;99.90;;;;;;5094723;28;20785;-67
2021/11/29 12:37:11;;;;;;;11.43;7.77;;;7.30;99.90;;;;;;5098396;28;20463;-68
2021/11/29 12:39:54;;;;;;;12.43;7.47;;;8.20;99.90;;;;;;5098581;28;20472;-68
2021/11/29 12:42:57;;;;;;;10.43;6.43;;;8.70;99.90;;;;;;5098014;28;20590;-69
2021/11/29 12:45:30;;;;;;;11.87;7.70;;;9.00;99.90;;;;;;5098098;28;20526;-68
2021/11/29 12:48:00;;;;;;;10.47;6.87;;;8.80;99.90;;;;;;5098311;28;20824;-68